createdAt,value
2018-08-22T00:01:10.861Z,19.70
2018-08-22T00:03:38.552Z,19.60
2018-08-22T00:06:06.137Z,19.60
2018-08-22T00:08:39.482Z,19.50
2018-08-22T00:11:07.096Z,19.40
2018-08-22T00:13:34.777Z,19.40
2018-08-22T00:16:02.640Z,19.40
2018-08-22T00:18:30.245Z,19.40
2018-08-22T00:20:57.841Z,19.40
2018-08-22T00:23:25.412Z,19.40
2018-08-22T00:25:53.081Z,19.40
2018-08-22T00:28:20.693Z,19.40
2018-08-22T00:30:48.285Z,19.30
2018-08-22T00:33:15.825Z,19.30
2018-08-22T00:35:43.655Z,19.30
2018-08-22T00:38:11.504Z,19.30
2018-08-22T00:40:39.115Z,19.40
2018-08-22T00:43:06.651Z,19.40
2018-08-22T00:45:34.229Z,19.40
2018-08-22T00:48:01.791Z,19.40
2018-08-22T00:50:29.332Z,19.50
2018-08-22T00:52:56.897Z,19.50
2018-08-22T00:55:24.465Z,19.60
2018-08-22T00:57:52.053Z,19.60
2018-08-22T01:00:19.605Z,19.60
2018-08-22T01:02:47.108Z,19.50
2018-08-22T01:05:14.777Z,19.50
2018-08-22T01:07:42.327Z,19.40
2018-08-22T01:10:09.963Z,19.40
2018-08-22T01:12:37.941Z,19.30
2018-08-22T01:15:05.586Z,19.30
2018-08-22T01:17:33.476Z,19.30
2018-08-22T01:20:01.036Z,19.30
2018-08-22T01:22:28.719Z,19.30
2018-08-22T01:24:56.306Z,19.30
2018-08-22T01:27:23.877Z,19.40
2018-08-22T01:29:54.138Z,19.30
2018-08-22T01:32:22.092Z,19.30
2018-08-22T01:34:50.161Z,19.20
2018-08-22T01:37:17.765Z,19.20
2018-08-22T01:39:45.780Z,19.10
2018-08-22T01:42:13.304Z,19.10
2018-08-22T01:44:40.921Z,19.00
2018-08-22T01:47:08.473Z,19.00
2018-08-22T01:49:36.004Z,19.00
2018-08-22T01:52:03.639Z,18.90
2018-08-22T01:54:31.210Z,18.90
2018-08-22T01:56:58.782Z,18.90
2018-08-22T01:59:26.360Z,18.90
2018-08-22T02:01:53.996Z,18.90
2018-08-22T02:04:21.675Z,18.90
2018-08-22T02:06:49.464Z,18.90
2018-08-22T02:09:16.973Z,18.80
2018-08-22T02:11:44.544Z,18.80
2018-08-22T02:14:12.151Z,18.70
2018-08-22T02:16:39.862Z,18.60
2018-08-22T02:19:08.664Z,18.50
2018-08-22T02:21:36.328Z,18.50
2018-08-22T02:24:03.928Z,18.40
2018-08-22T02:26:31.757Z,18.40
2018-08-22T02:28:59.312Z,18.30
2018-08-22T02:31:26.869Z,18.30
2018-08-22T02:33:54.409Z,18.20
2018-08-22T02:36:21.976Z,18.20
2018-08-22T02:38:49.741Z,18.10
2018-08-22T02:41:17.283Z,18.10
2018-08-22T02:43:44.865Z,18.00
2018-08-22T02:46:12.564Z,18.00
2018-08-22T02:48:45.797Z,17.90
2018-08-22T02:51:13.506Z,17.90
2018-08-22T02:53:41.154Z,17.90
2018-08-22T02:56:08.922Z,17.80
2018-08-22T02:58:36.494Z,17.80
2018-08-22T03:01:04.156Z,17.80
2018-08-22T03:03:31.790Z,17.70
2018-08-22T03:05:59.448Z,17.70
2018-08-22T03:08:27.113Z,17.70
2018-08-22T03:10:54.722Z,17.70
2018-08-22T03:13:22.476Z,17.70
2018-08-22T03:15:50.104Z,17.70
2018-08-22T03:18:17.653Z,17.60
2018-08-22T03:20:45.282Z,17.60
2018-08-22T03:23:12.841Z,17.60
2018-08-22T03:25:40.760Z,17.50
2018-08-22T03:28:08.337Z,17.50
2018-08-22T03:30:35.924Z,17.50
2018-08-22T03:33:03.745Z,17.40
2018-08-22T03:35:31.364Z,17.40
2018-08-22T03:37:58.917Z,17.40
2018-08-22T03:40:26.482Z,17.40
2018-08-22T03:42:54.013Z,17.40
2018-08-22T03:45:21.598Z,17.40
2018-08-22T03:47:49.117Z,17.30
2018-08-22T03:50:16.734Z,17.30
2018-08-22T03:52:44.274Z,17.30
2018-08-22T03:55:11.889Z,17.30
2018-08-22T03:57:40.465Z,17.30
2018-08-22T04:00:08.062Z,17.30
2018-08-22T04:02:39.901Z,17.30
2018-08-22T04:05:07.579Z,17.30
2018-08-22T04:07:35.117Z,17.30
2018-08-22T04:10:02.911Z,17.20
2018-08-22T04:12:30.458Z,17.20
2018-08-22T04:14:58.017Z,17.20
2018-08-22T04:17:29.031Z,17.20
2018-08-22T04:19:56.607Z,17.20
2018-08-22T04:22:24.140Z,17.20
2018-08-22T04:24:51.709Z,17.20
2018-08-22T04:27:19.271Z,17.10
2018-08-22T04:29:46.893Z,17.10
2018-08-22T04:32:14.570Z,17.10
2018-08-22T04:34:42.152Z,17.10
2018-08-22T04:37:09.733Z,17.10
2018-08-22T04:39:37.317Z,17.10
2018-08-22T04:42:04.933Z,17.10
2018-08-22T04:44:32.502Z,17.10
2018-08-22T04:47:00.086Z,17.10
2018-08-22T04:49:27.661Z,17.20
2018-08-22T04:51:55.182Z,17.20
2018-08-22T04:54:22.812Z,17.30
2018-08-22T04:56:50.364Z,17.40
2018-08-22T04:59:18.083Z,17.50
2018-08-22T05:01:45.717Z,17.70
2018-08-22T05:04:13.286Z,17.90
2018-08-22T05:06:40.937Z,18.00
2018-08-22T05:09:09.123Z,18.20
2018-08-22T05:11:36.678Z,18.40
2018-08-22T05:14:04.410Z,18.50
2018-08-22T05:16:32.189Z,18.60
2018-08-22T05:18:59.728Z,18.70
2018-08-22T05:21:27.477Z,18.70
2018-08-22T05:23:55.079Z,18.70
2018-08-22T05:26:22.654Z,18.70
2018-08-22T05:28:50.252Z,18.70
2018-08-22T05:31:17.804Z,18.70
2018-08-22T05:33:45.357Z,18.70
2018-08-22T05:36:12.954Z,18.80
2018-08-22T05:38:40.529Z,18.80
2018-08-22T05:41:08.170Z,18.90
2018-08-22T05:43:35.728Z,18.90
2018-08-22T05:46:03.441Z,18.90
2018-08-22T05:48:31.161Z,19.00
2018-08-22T05:50:58.996Z,19.00
2018-08-22T05:53:26.672Z,19.10
2018-08-22T05:55:54.448Z,19.20
2018-08-22T05:58:22.108Z,19.30
2018-08-22T06:00:49.832Z,19.40
2018-08-22T06:03:17.441Z,19.60
2018-08-22T06:05:45.090Z,19.70
2018-08-22T06:08:12.817Z,19.70
2018-08-22T06:10:40.618Z,19.80
2018-08-22T06:13:08.390Z,19.90
2018-08-22T06:15:36.142Z,20.10
2018-08-22T06:18:03.801Z,20.20
2018-08-22T06:20:31.381Z,20.30
2018-08-22T06:22:59.104Z,20.40
2018-08-22T06:25:26.788Z,20.60
2018-08-22T06:27:54.541Z,20.70
2018-08-22T06:30:22.089Z,20.80
2018-08-22T06:32:49.806Z,21.00
2018-08-22T06:35:17.381Z,21.20
2018-08-22T06:37:44.994Z,21.30
2018-08-22T06:40:12.554Z,21.50
2018-08-22T06:42:40.170Z,21.60
2018-08-22T06:45:08.484Z,21.70
2018-08-22T06:47:37.360Z,21.90
2018-08-22T06:50:05.017Z,22.00
2018-08-22T06:52:32.569Z,22.10
2018-08-22T06:55:00.140Z,22.30
2018-08-22T06:57:27.841Z,22.70
2018-08-22T06:59:55.374Z,23.10
2018-08-22T07:02:22.999Z,23.40
2018-08-22T07:04:50.660Z,23.70
2018-08-22T07:07:18.198Z,24.00
2018-08-22T07:09:45.809Z,24.00
2018-08-22T07:12:13.350Z,23.90
2018-08-22T07:14:41.035Z,23.70
2018-08-22T07:17:08.725Z,23.60
2018-08-22T07:19:36.452Z,23.60
2018-08-22T07:22:04.388Z,23.70
2018-08-22T07:24:32.110Z,24.00
2018-08-22T07:26:59.822Z,24.40
2018-08-22T07:29:27.423Z,24.50
2018-08-22T07:31:55.175Z,24.50
2018-08-22T07:34:22.732Z,24.70
2018-08-22T07:36:50.345Z,25.20
2018-08-22T07:39:17.997Z,25.50
2018-08-22T07:41:45.610Z,26.10
2018-08-22T07:44:13.282Z,27.40
2018-08-22T07:46:40.971Z,29.00
2018-08-22T07:49:08.651Z,30.40
2018-08-22T07:51:36.486Z,31.60
2018-08-22T07:54:04.243Z,32.90
2018-08-22T07:56:31.802Z,33.40
2018-08-22T07:59:11.138Z,34.10
2018-08-22T08:01:39.120Z,34.20
2018-08-22T08:04:08.508Z,35.00
2018-08-22T08:06:36.146Z,35.00
2018-08-22T08:09:06.893Z,35.00
2018-08-22T08:11:34.671Z,35.00
2018-08-22T08:14:02.314Z,34.90
2018-08-22T08:16:29.946Z,34.90
2018-08-22T08:18:57.835Z,35.00
2018-08-22T08:21:25.576Z,35.40
2018-08-22T08:23:53.404Z,35.80
2018-08-22T08:26:20.998Z,36.10
2018-08-22T08:28:48.598Z,36.50
2018-08-22T08:31:16.287Z,36.40
2018-08-22T08:33:43.869Z,36.80
2018-08-22T08:36:11.551Z,37.20
2018-08-22T08:38:39.282Z,37.40
2018-08-22T08:41:07.166Z,37.30
2018-08-22T08:43:35.137Z,37.10
2018-08-22T08:46:03.060Z,37.20
2018-08-22T08:48:30.659Z,37.60
2018-08-22T08:50:58.330Z,38.10
2018-08-22T08:53:25.910Z,38.10
2018-08-22T08:55:53.514Z,37.60
2018-08-22T08:58:22.303Z,37.10
2018-08-22T09:00:49.924Z,37.30
2018-08-22T09:03:17.603Z,37.90
2018-08-22T09:05:45.292Z,38.30
2018-08-22T09:08:12.852Z,38.50
2018-08-22T09:10:40.538Z,38.30
2018-08-22T09:13:09.512Z,38.50
2018-08-22T09:15:37.155Z,39.10
2018-08-22T09:18:04.795Z,39.60
2018-08-22T09:20:32.433Z,39.70
2018-08-22T09:23:00.078Z,40.10
2018-08-22T09:25:27.734Z,40.20
2018-08-22T09:27:55.374Z,40.20
2018-08-22T09:30:23.051Z,40.30
2018-08-22T09:32:50.637Z,40.30
2018-08-22T09:35:18.223Z,40.10
2018-08-22T09:37:45.872Z,39.90
2018-08-22T09:40:13.533Z,39.80
2018-08-22T09:42:41.329Z,39.20
2018-08-22T09:45:09.247Z,39.40
2018-08-22T09:47:37.055Z,39.80
2018-08-22T09:50:05.092Z,40.40
2018-08-22T09:52:32.762Z,40.70
2018-08-22T09:55:02.015Z,41.20
2018-08-22T09:57:30.230Z,41.10
2018-08-22T09:59:57.883Z,40.60
2018-08-22T10:02:25.491Z,40.40
2018-08-22T10:04:53.533Z,40.50
2018-08-22T10:07:21.226Z,40.20
2018-08-22T10:09:48.809Z,40.00
2018-08-22T10:12:17.009Z,40.00
2018-08-22T10:14:44.645Z,40.30
2018-08-22T10:17:12.265Z,40.30
2018-08-22T10:19:39.916Z,40.70
2018-08-22T10:22:07.518Z,41.10
2018-08-22T10:24:35.102Z,40.90
2018-08-22T10:27:02.804Z,40.60
2018-08-22T10:29:30.362Z,39.80
2018-08-22T10:31:57.964Z,39.40
2018-08-22T10:34:25.580Z,39.20
2018-08-22T10:36:53.189Z,39.40
2018-08-22T10:39:20.771Z,40.00
2018-08-22T10:41:48.402Z,40.10
2018-08-22T10:44:16.149Z,39.70
2018-08-22T10:46:43.688Z,39.80
2018-08-22T10:49:11.374Z,40.00
2018-08-22T10:51:38.952Z,39.70
2018-08-22T10:54:06.709Z,39.70
2018-08-22T10:56:34.321Z,39.90
2018-08-22T10:59:01.946Z,39.90
2018-08-22T11:01:29.746Z,40.00
2018-08-22T11:03:57.363Z,40.10
2018-08-22T11:06:24.974Z,40.40
2018-08-22T11:08:52.583Z,40.50
2018-08-22T11:11:20.177Z,40.30
2018-08-22T11:13:47.782Z,39.80
2018-08-22T11:16:15.436Z,39.70
2018-08-22T11:18:43.083Z,39.60
2018-08-22T11:21:22.037Z,39.50
2018-08-22T11:24:01.117Z,39.40
2018-08-22T11:26:40.137Z,39.00
2018-08-22T11:29:18.922Z,38.80
2018-08-22T11:31:57.821Z,38.70
2018-08-22T11:34:36.688Z,38.00
2018-08-22T11:37:06.373Z,37.30
2018-08-22T11:39:34.095Z,35.90
2018-08-22T11:42:02.062Z,34.80
2018-08-22T11:44:29.935Z,33.90
2018-08-22T11:46:57.553Z,33.00
2018-08-22T11:49:25.252Z,32.70
2018-08-22T11:51:52.842Z,32.40
2018-08-22T11:54:20.478Z,32.30
2018-08-22T11:56:48.094Z,32.20
2018-08-22T11:59:15.718Z,32.10
2018-08-22T12:01:43.309Z,32.00
2018-08-22T12:04:10.952Z,31.70
2018-08-22T12:06:38.766Z,31.60
2018-08-22T12:09:08.310Z,31.60
2018-08-22T12:11:36.055Z,31.60
2018-08-22T12:14:03.746Z,31.40
2018-08-22T12:16:31.477Z,31.50
2018-08-22T12:18:59.069Z,31.40
2018-08-22T12:21:26.933Z,31.40
2018-08-22T12:23:54.590Z,31.50
2018-08-22T12:26:22.200Z,31.40
2018-08-22T12:28:49.981Z,31.40
2018-08-22T12:31:17.666Z,31.40
2018-08-22T12:33:45.292Z,31.30
2018-08-22T12:36:12.877Z,31.50
2018-08-22T12:38:40.481Z,31.40
2018-08-22T12:41:08.406Z,31.30
2018-08-22T12:43:36.026Z,31.20
2018-08-22T12:46:03.803Z,31.20
2018-08-22T12:48:31.642Z,31.20
2018-08-22T12:50:59.294Z,31.20
2018-08-22T12:53:27.401Z,31.10
2018-08-22T12:55:55.030Z,31.10
2018-08-22T12:58:22.668Z,31.10
2018-08-22T13:00:50.256Z,31.20
2018-08-22T13:03:18.040Z,31.30
2018-08-22T13:05:45.746Z,31.20
2018-08-22T13:08:13.333Z,31.20
2018-08-22T13:10:40.978Z,31.40
2018-08-22T13:13:08.569Z,31.40
2018-08-22T13:15:36.369Z,31.30
2018-08-22T13:18:04.417Z,31.30
2018-08-22T13:20:32.041Z,31.30
2018-08-22T13:22:59.652Z,31.30
2018-08-22T13:25:27.337Z,31.30
2018-08-22T13:27:54.950Z,31.20
2018-08-22T13:30:22.749Z,31.20
2018-08-22T13:32:50.424Z,30.80
2018-08-22T13:35:18.089Z,30.50
2018-08-22T13:37:45.669Z,30.50
2018-08-22T13:40:13.466Z,30.50
2018-08-22T13:42:44.325Z,30.50
2018-08-22T13:45:12.064Z,30.50
2018-08-22T13:47:39.971Z,30.60
2018-08-22T13:50:07.646Z,30.70
2018-08-22T13:52:35.280Z,30.80
2018-08-22T13:55:03.107Z,31.00
2018-08-22T13:57:30.730Z,31.10
2018-08-22T13:59:58.464Z,31.10
2018-08-22T14:02:26.147Z,31.20
2018-08-22T14:04:53.893Z,31.20
2018-08-22T14:07:21.601Z,31.10
2018-08-22T14:09:49.366Z,31.00
2018-08-22T14:12:17.021Z,30.70
2018-08-22T14:14:45.082Z,30.70
2018-08-22T14:17:13.463Z,30.70
2018-08-22T14:19:41.444Z,30.70
2018-08-22T14:22:12.813Z,30.70
2018-08-22T14:24:40.900Z,30.60
2018-08-22T14:27:08.858Z,30.70
2018-08-22T14:29:38.368Z,30.70
2018-08-22T14:32:06.215Z,30.60
2018-08-22T14:34:34.324Z,30.50
2018-08-22T14:37:02.255Z,30.30
2018-08-22T14:39:30.129Z,30.10
2018-08-22T14:41:58.133Z,30.10
2018-08-22T14:44:26.250Z,30.10
2018-08-22T14:46:54.182Z,30.10
2018-08-22T14:49:21.981Z,30.00
2018-08-22T14:51:49.911Z,30.10
2018-08-22T14:54:18.008Z,30.10
2018-08-22T14:56:45.878Z,30.20
2018-08-22T14:59:13.827Z,30.20
2018-08-22T15:01:41.959Z,30.20
2018-08-22T15:04:09.874Z,30.20
2018-08-22T15:06:37.872Z,30.10
2018-08-22T15:09:12.416Z,30.10
2018-08-22T15:11:40.280Z,30.10
2018-08-22T15:14:09.303Z,30.00
2018-08-22T15:16:37.230Z,29.90
2018-08-22T15:19:05.417Z,29.90
2018-08-22T15:21:33.346Z,29.80
2018-08-22T15:24:01.402Z,29.70
2018-08-22T15:29:09.095Z,29.80
2018-08-22T15:31:36.799Z,29.80
2018-08-22T15:34:05.178Z,29.70
2018-08-22T15:36:34.914Z,29.70
2018-08-22T15:39:02.915Z,29.70
2018-08-22T15:41:30.809Z,29.70
2018-08-22T15:44:00.566Z,29.70
2018-08-22T15:46:28.207Z,29.60
2018-08-22T15:48:55.968Z,29.50
2018-08-22T15:51:23.633Z,29.50
2018-08-22T15:54:05.966Z,29.40
2018-08-22T15:56:33.915Z,29.20
2018-08-22T15:59:01.602Z,29.00
2018-08-22T16:01:29.406Z,28.90
2018-08-22T16:03:57.117Z,28.80
2018-08-22T16:06:24.841Z,28.80
2018-08-22T16:08:52.663Z,28.80
2018-08-22T16:11:20.592Z,28.80
2018-08-22T16:13:48.231Z,28.70
2018-08-22T16:16:15.910Z,28.70
2018-08-22T16:18:43.667Z,28.60
2018-08-22T16:21:11.426Z,28.50
2018-08-22T16:23:39.161Z,28.40
2018-08-22T16:26:06.883Z,28.40
2018-08-22T16:28:48.949Z,28.40
2018-08-22T16:31:16.866Z,28.30
2018-08-22T16:33:44.378Z,28.30
2018-08-22T16:36:19.449Z,28.20
2018-08-22T16:38:47.112Z,28.20
2018-08-22T16:41:16.570Z,28.20
2018-08-22T16:46:23.520Z,28.10
2018-08-22T16:48:52.607Z,28.00
2018-08-22T16:51:21.505Z,28.00
2018-08-22T16:53:58.448Z,27.90
2018-08-22T16:56:26.249Z,27.80
2018-08-22T16:58:58.228Z,27.80
2018-08-22T17:01:25.914Z,27.70
2018-08-22T17:03:53.620Z,27.60
2018-08-22T17:06:25.177Z,27.60
2018-08-22T17:08:52.847Z,27.50
2018-08-22T17:11:20.593Z,27.40
2018-08-22T17:13:50.302Z,27.40
2018-08-22T17:16:19.322Z,27.30
2018-08-22T17:18:47.374Z,27.20
2018-08-22T17:21:15.114Z,27.20
2018-08-22T17:23:44.072Z,27.10
2018-08-22T17:26:14.755Z,27.10
2018-08-22T17:28:44.747Z,26.90
2018-08-22T17:33:47.281Z,26.80
2018-08-22T17:36:15.028Z,26.70
2018-08-22T17:38:43.727Z,26.60
2018-08-22T17:41:11.418Z,26.60
2018-08-22T17:44:21.329Z,26.50
2018-08-22T17:46:50.415Z,26.50
2018-08-22T17:49:18.087Z,26.40
2018-08-22T17:51:55.637Z,26.30
2018-08-22T17:54:23.513Z,26.20
2018-08-22T17:57:23.933Z,26.10
2018-08-22T17:59:53.078Z,26.10
2018-08-22T18:02:20.797Z,26.00
2018-08-22T18:04:59.382Z,26.00
2018-08-22T18:07:27.154Z,25.90
2018-08-22T18:09:54.939Z,25.90
2018-08-22T18:12:24.335Z,25.70
2018-08-22T18:14:52.329Z,25.70
2018-08-22T18:17:20.391Z,25.60
2018-08-22T18:19:48.246Z,25.50
2018-08-22T18:22:16.270Z,25.50
2018-08-22T18:24:49.683Z,25.40
2018-08-22T18:27:17.440Z,25.30
2018-08-22T18:29:45.918Z,25.20
2018-08-22T18:32:14.045Z,25.10
2018-08-22T18:34:55.184Z,25.10
2018-08-22T18:37:23.203Z,24.90
2018-08-22T18:40:02.261Z,24.90
2018-08-22T18:42:29.914Z,24.80
2018-08-22T18:44:57.583Z,24.80
2018-08-22T18:47:25.624Z,24.70
2018-08-22T18:49:53.833Z,24.70
2018-08-22T18:52:21.517Z,24.50
2018-08-22T18:54:50.311Z,24.50
2018-08-22T18:57:18.193Z,24.40
2018-08-22T18:59:46.146Z,24.40
2018-08-22T19:02:13.758Z,24.40
2018-08-22T19:04:41.689Z,24.40
2018-08-22T19:07:09.349Z,24.40
2018-08-22T19:09:36.991Z,24.30
2018-08-22T19:12:04.853Z,24.20
2018-08-22T19:14:44.137Z,24.20
2018-08-22T19:17:15.083Z,24.10
2018-08-22T19:19:43.559Z,24.10
2018-08-22T19:22:13.616Z,24.00
2018-08-22T19:24:50.388Z,23.90
2018-08-22T19:27:18.060Z,23.80
2018-08-22T19:29:45.671Z,23.80
2018-08-22T19:32:13.391Z,23.70
2018-08-22T19:34:42.978Z,23.70
2018-08-22T19:37:10.955Z,23.60
2018-08-22T19:39:47.691Z,23.50
2018-08-22T19:42:15.402Z,23.50
2018-08-22T19:44:43.051Z,23.40
2018-08-22T19:47:11.076Z,23.40
2018-08-22T19:49:38.725Z,23.30
2018-08-22T19:52:06.391Z,23.20
2018-08-22T19:54:34.080Z,23.10
2018-08-22T19:57:01.733Z,23.10
2018-08-22T19:59:29.348Z,23.00
2018-08-22T20:01:57.101Z,23.00
2018-08-22T20:04:24.837Z,22.90
2018-08-22T20:06:52.477Z,22.90
2018-08-22T20:09:20.404Z,22.80
2018-08-22T20:11:48.132Z,22.80
2018-08-22T20:14:15.981Z,22.80
2018-08-22T20:16:43.890Z,22.70
2018-08-22T20:19:11.731Z,22.60
2018-08-22T20:21:40.818Z,22.60
2018-08-22T20:24:11.205Z,22.60
2018-08-22T20:26:48.357Z,22.60
2018-08-22T20:29:16.091Z,22.50
2018-08-22T20:31:43.681Z,22.50
2018-08-22T20:34:13.182Z,22.40
2018-08-22T20:36:44.204Z,22.40
2018-08-22T20:39:12.582Z,22.30
2018-08-22T20:41:40.876Z,22.30
2018-08-22T20:44:11.163Z,22.20
2018-08-22T20:46:39.181Z,22.20
2018-08-22T20:49:06.877Z,22.20
2018-08-22T20:51:34.600Z,22.10
2018-08-22T20:54:09.617Z,22.10
2018-08-22T20:56:40.202Z,22.00
2018-08-22T20:59:07.861Z,22.00
2018-08-22T21:01:35.475Z,22.00
2018-08-22T21:04:03.214Z,21.90
2018-08-22T21:06:30.834Z,21.90
2018-08-22T21:08:58.900Z,21.90
2018-08-22T21:11:26.560Z,21.80
2018-08-22T21:13:55.064Z,21.70
2018-08-22T21:16:22.659Z,21.70
2018-08-22T21:18:50.372Z,21.60
2018-08-22T21:21:24.305Z,21.60
2018-08-22T21:23:52.141Z,21.60
2018-08-22T21:26:34.052Z,21.60
2018-08-22T21:29:01.771Z,21.50
2018-08-22T21:31:29.579Z,21.40
2018-08-22T21:33:57.510Z,21.40
2018-08-22T21:36:25.239Z,21.30
2018-08-22T21:38:53.191Z,21.30
2018-08-22T21:41:20.814Z,21.20
2018-08-22T21:43:48.405Z,21.20
2018-08-22T21:46:16.075Z,21.10
2018-08-22T21:48:43.725Z,21.10
2018-08-22T21:51:11.309Z,21.00
2018-08-22T21:53:39.034Z,21.00
2018-08-22T21:56:06.645Z,21.00
2018-08-22T21:58:34.459Z,20.90
2018-08-22T22:01:04.503Z,20.90
2018-08-22T22:03:32.391Z,20.80
2018-08-22T22:06:01.340Z,20.80
2018-08-22T22:08:29.061Z,20.80
2018-08-22T22:10:59.026Z,20.70
2018-08-22T22:13:26.812Z,20.60
2018-08-22T22:15:58.574Z,20.60
2018-08-22T22:18:26.366Z,20.60
2018-08-22T22:21:06.373Z,20.50
2018-08-22T22:23:39.223Z,20.40
2018-08-22T22:26:06.835Z,20.40
2018-08-22T22:28:38.179Z,20.30
2018-08-22T22:31:12.878Z,20.30
2018-08-22T22:33:45.856Z,20.20
2018-08-22T22:36:14.113Z,20.20
2018-08-22T22:38:41.750Z,20.20
2018-08-22T22:41:09.365Z,20.20
2018-08-22T22:43:37.016Z,20.20
2018-08-22T22:46:04.956Z,20.20
2018-08-22T22:48:38.818Z,20.20
2018-08-22T22:51:07.371Z,20.20
2018-08-22T22:53:35.332Z,20.20
2018-08-22T22:56:02.962Z,20.10
2018-08-22T22:58:31.857Z,20.10
2018-08-22T23:00:59.464Z,20.10
2018-08-22T23:03:27.150Z,20.00
2018-08-22T23:05:54.769Z,20.00
2018-08-22T23:08:22.370Z,20.00
2018-08-22T23:10:49.997Z,19.90
2018-08-22T23:13:17.631Z,19.90
2018-08-22T23:15:45.567Z,19.90
2018-08-22T23:18:13.179Z,19.80
2018-08-22T23:20:42.497Z,19.80
2018-08-22T23:23:41.944Z,19.80
2018-08-22T23:26:15.339Z,19.80
2018-08-22T23:28:43.985Z,19.80
2018-08-22T23:31:15.886Z,19.70
2018-08-22T23:33:43.544Z,19.70
2018-08-22T23:36:11.121Z,19.70
2018-08-22T23:38:38.747Z,19.60
2018-08-22T23:41:06.341Z,19.60
2018-08-22T23:43:40.179Z,19.60
2018-08-22T23:46:09.271Z,19.50
2018-08-22T23:48:37.569Z,19.50
2018-08-22T23:51:07.889Z,19.50
2018-08-22T23:53:52.377Z,19.50
2018-08-22T23:56:28.274Z,19.50
2018-08-22T23:58:56.437Z,19.40
